Time;durP1;ratioP1;P1;durP2;ratioP2;P2;SDS_P1;SDS_P2;PMS_P1;PMS_P2;Temp;Humidity;BMP_temperature;BMP_pressure;BME280_temperature;BME280_humidity;BME280_pressure;Samples;Min_cycle;Max_cycle;Signal;HPM_P1;HPM_P2
2022/02/11 00:09:04;;;;;;;6.23;2.40;;;;;;;;;;4942685;28;20234;-73
2022/02/11 00:11:33;;;;;;;8.80;2.60;;;;;;;;;;4945687;28;20750;-73
2022/02/11 00:13:59;;;;;;;10.47;2.57;;;;;;;;;;4973685;28;20222;-74
2022/02/11 00:16:29;;;;;;;8.27;2.80;;;;;;;;;;4972823;28;20226;-74
2022/02/11 00:18:58;;;;;;;9.40;2.70;;;;;;;;;;4973357;28;20237;-73
2022/02/11 00:21:23;;;;;;;5.47;2.20;;;;;;;;;;4972951;28;20288;-72
2022/02/11 00:23:49;;;;;;;7.33;2.50;;;;;;;;;;4956648;28;20704;-73
2022/02/11 00:26:17;;;;;;;9.50;3.00;;;;;;;;;;4972959;28;20697;-74
2022/02/11 00:33:51;;;;;;;8.43;2.70;;;;;;;;;;4957493;28;20229;-73
2022/02/11 00:36:17;;;;;;;8.67;2.60;;;;;;;;;;4949052;28;20225;-73
2022/02/11 01:06:11;;;;;;;7.17;2.80;;;;;;;;;;4949788;28;20223;-75
2022/02/11 01:08:41;;;;;;;10.00;2.67;;;;;;;;;;4956081;28;20615;-73
2022/02/11 01:11:13;;;;;;;9.60;3.20;;;;;;;;;;4940691;28;20237;-73
2022/02/11 01:13:38;;;;;;;9.50;3.10;;;;;;;;;;4956606;28;20226;-72
2022/02/11 01:16:10;;;;;;;9.50;3.47;;;;;;;;;;4971559;28;20739;-72
2022/02/11 01:18:36;;;;;;;12.03;3.20;;;;;;;;;;4969079;28;20226;-73
2022/02/11 01:21:08;;;;;;;9.83;2.70;;;;;;;;;;4952709;28;20357;-72
2022/02/11 01:23:51;;;;;;;11.50;3.63;;;;;;;;;;4953018;28;20230;-72
2022/02/11 01:26:39;;;;;;;11.10;2.80;;;;;;;;;;4954291;28;20230;-72
2022/02/11 01:29:45;;;;;;;9.60;3.40;;;;;;;;;;4958212;28;20237;-72
2022/02/11 01:37:05;;;;;;;11.13;3.13;;;;;;;;;;4965281;28;20636;-72
2022/02/11 01:43:23;;;;;;;11.87;3.30;;;;;;;;;;4948087;28;20230;-72
2022/02/11 01:55:53;;;;;;;9.50;3.37;;;;;;;;;;4971864;28;20322;-73
2022/02/11 02:09:54;;;;;;;8.83;3.10;;;;;;;;;;4978227;28;20245;-73
2022/02/11 02:13:00;;;;;;;12.10;2.70;;;;;;;;;;4970554;28;20700;-73
2022/02/11 02:23:01;;;;;;;11.10;3.60;;;;;;;;;;4967734;28;20828;-72
2022/02/11 02:25:44;;;;;;;9.90;3.50;;;;;;;;;;4952148;28;20227;-72
2022/02/11 02:38:40;;;;;;;12.73;3.13;;;;;;;;;;4950406;28;20218;-72
2022/02/11 02:58:00;;;;;;;11.67;3.47;;;;;;;;;;4972132;28;20250;-73
2022/02/11 03:48:40;;;;;;;10.40;3.70;;;;;;;;;;4966145;28;20261;-73
2022/02/11 04:55:28;;;;;;;15.40;5.50;;;;;;;;;;4949871;28;20280;-72
2022/02/11 05:00:42;;;;;;;11.70;5.63;;;;;;;;;;4955325;28;20640;-72
2022/02/11 05:03:10;;;;;;;11.67;5.93;;;;;;;;;;4971820;28;20230;-72
2022/02/11 05:05:54;;;;;;;11.20;5.67;;;;;;;;;;4969887;28;20234;-73
2022/02/11 05:08:27;;;;;;;14.60;5.90;;;;;;;;;;4962676;28;20310;-72
2022/02/11 05:11:00;;;;;;;13.30;5.43;;;;;;;;;;4972688;28;20218;-72
2022/02/11 05:13:33;;;;;;;10.70;5.60;;;;;;;;;;4972837;28;20230;-73
2022/02/11 05:15:58;;;;;;;14.90;7.07;;;;;;;;;;4972454;28;20264;-73
2022/02/11 05:18:24;;;;;;;14.20;6.20;;;;;;;;;;4988180;28;20708;-74
2022/02/11 05:20:52;;;;;;;13.80;5.90;;;;;;;;;;4972108;28;20328;-73
2022/02/11 05:23:20;;;;;;;14.07;6.13;;;;;;;;;;4971609;28;20226;-73
2022/02/11 05:25:51;;;;;;;18.90;6.07;;;;;;;;;;4973888;28;20230;-73
2022/02/11 05:28:19;;;;;;;14.10;6.40;;;;;;;;;;4971066;28;20218;-73
2022/02/11 05:30:45;;;;;;;16.17;7.40;;;;;;;;;;4972259;28;20228;-72
2022/02/11 05:33:13;;;;;;;15.00;7.67;;;;;;;;;;4970300;28;20305;-73
2022/02/11 05:35:41;;;;;;;13.50;7.37;;;;;;;;;;4968223;28;20218;-72
2022/02/11 05:38:12;;;;;;;17.27;6.30;;;;;;;;;;4923799;28;20318;-73
2022/02/11 05:40:38;;;;;;;17.20;7.33;;;;;;;;;;4955622;28;20237;-73
2022/02/11 05:43:03;;;;;;;15.43;6.60;;;;;;;;;;4939252;28;20230;-73
2022/02/11 05:45:29;;;;;;;14.03;7.33;;;;;;;;;;4955733;28;20708;-72
2022/02/11 05:47:55;;;;;;;15.73;7.73;;;;;;;;;;4943995;28;20293;-72
2022/02/11 05:50:22;;;;;;;18.33;7.50;;;;;;;;;;4969406;28;20227;-73
2022/02/11 05:52:50;;;;;;;17.90;8.63;;;;;;;;;;4966125;28;20237;-73
2022/02/11 05:55:25;;;;;;;12.97;7.90;;;;;;;;;;4940915;28;20319;-73
2022/02/11 05:57:51;;;;;;;13.37;8.67;;;;;;;;;;4952623;28;20251;-73
2022/02/11 06:00:19;;;;;;;16.90;9.40;;;;;;;;;;4967867;28;20253;-73
2022/02/11 06:02:45;;;;;;;16.47;9.37;;;;;;;;;;4979784;28;20222;-72
2022/02/11 06:05:11;;;;;;;22.90;9.97;;;;;;;;;;4971139;28;20644;-72
2022/02/11 06:07:39;;;;;;;17.07;9.80;;;;;;;;;;4953125;28;20719;-72
2022/02/11 06:10:07;;;;;;;17.20;9.83;;;;;;;;;;4970613;28;20724;-74
2022/02/11 06:12:32;;;;;;;19.10;9.47;;;;;;;;;;4971654;28;20233;-72
2022/02/11 06:15:03;;;;;;;18.27;10.23;;;;;;;;;;4971471;28;20230;-72
2022/02/11 06:17:28;;;;;;;20.97;12.13;;;;;;;;;;4971269;28;20293;-73
2022/02/11 06:20:00;;;;;;;19.40;11.63;;;;;;;;;;4971430;28;20218;-74
2022/02/11 06:22:28;;;;;;;17.37;10.87;;;;;;;;;;4970326;28;20229;-74
2022/02/11 06:24:56;;;;;;;18.43;11.57;;;;;;;;;;4965568;28;20222;-73
2022/02/11 06:27:24;;;;;;;15.77;10.73;;;;;;;;;;4956758;28;20596;-74
2022/02/11 06:29:50;;;;;;;15.00;10.30;;;;;;;;;;4971523;28;20234;-72
2022/02/11 06:32:15;;;;;;;16.17;10.63;;;;;;;;;;4972047;28;20252;-72
2022/02/11 06:34:46;;;;;;;11.60;8.47;;;;;;;;;;4971128;28;20256;-73
2022/02/11 06:37:16;;;;;;;13.67;8.07;;;;;;;;;;4933389;28;20293;-72
2022/02/11 06:39:42;;;;;;;8.87;5.53;;;;;;;;;;4971228;28;20663;-73
2022/02/11 06:42:11;;;;;;;7.60;6.07;;;;;;;;;;4971385;28;20345;-74
2022/02/11 06:44:37;;;;;;;10.77;6.70;;;;;;;;;;4955934;28;20214;-74
2022/02/11 06:47:03;;;;;;;8.47;6.17;;;;;;;;;;4962279;28;20221;-73
2022/02/11 06:49:31;;;;;;;8.10;6.13;;;;;;;;;;4972285;28;20289;-73
2022/02/11 06:51:57;;;;;;;10.53;6.47;;;;;;;;;;4987937;28;20230;-73
2022/02/11 06:54:28;;;;;;;10.73;6.60;;;;;;;;;;4986254;28;20269;-73
2022/02/11 06:56:56;;;;;;;8.13;6.57;;;;;;;;;;4970258;28;20250;-74
2022/02/11 06:59:28;;;;;;;8.33;6.77;;;;;;;;;;4969512;28;20222;-73
2022/02/11 07:01:54;;;;;;;8.30;6.90;;;;;;;;;;4996953;28;20980;-73
2022/02/11 07:04:19;;;;;;;7.67;6.87;;;;;;;;;;4977730;28;20280;-72
2022/02/11 07:06:46;;;;;;;7.60;6.80;;;;;;;;;;4972023;28;20282;-73
2022/02/11 07:09:12;;;;;;;7.57;6.47;;;;;;;;;;4958508;28;20584;-73
2022/02/11 07:11:40;;;;;;;8.13;6.67;;;;;;;;;;4958458;28;20337;-73
2022/02/11 07:14:05;;;;;;;12.60;8.97;;;;;;;;;;4974819;28;20225;-74
2022/02/11 07:16:31;;;;;;;20.57;16.47;;;;;;;;;;4976968;28;20229;-72
2022/02/11 07:18:59;;;;;;;7.00;6.30;;;;;;;;;;4958427;28;20221;-73
2022/02/11 07:21:24;;;;;;;7.33;6.50;;;;;;;;;;4958013;28;20222;-74
2022/02/11 07:23:52;;;;;;;6.77;5.80;;;;;;;;;;4973759;28;20234;-73
2022/02/11 07:26:19;;;;;;;6.53;5.73;;;;;;;;;;4957513;28;20237;-73
2022/02/11 07:28:49;;;;;;;6.90;5.77;;;;;;;;;;4974549;28;20728;-73
2022/02/11 07:31:17;;;;;;;5.67;5.07;;;;;;;;;;4957251;28;20230;-72
2022/02/11 07:33:45;;;;;;;7.07;5.80;;;;;;;;;;4969859;28;20593;-73
2022/02/11 07:36:14;;;;;;;5.77;5.07;;;;;;;;;;4968454;28;20741;-73
2022/02/11 07:38:42;;;;;;;6.13;5.13;;;;;;;;;;4966150;28;20233;-74
2022/02/11 07:41:07;;;;;;;7.63;5.50;;;;;;;;;;4972899;28;20214;-72
2022/02/11 07:43:35;;;;;;;7.33;5.67;;;;;;;;;;4955647;28;20237;-73
2022/02/11 07:46:03;;;;;;;7.77;6.00;;;;;;;;;;4974392;28;20743;-73
2022/02/11 07:48:28;;;;;;;6.43;5.73;;;;;;;;;;4990492;28;20234;-73
2022/02/11 07:50:56;;;;;;;6.77;6.07;;;;;;;;;;4974376;28;20934;-73
2022/02/11 07:53:26;;;;;;;7.57;6.70;;;;;;;;;;4956751;28;20221;-74
2022/02/11 07:55:56;;;;;;;8.30;6.63;;;;;;;;;;4974066;28;20649;-73
2022/02/11 07:58:25;;;;;;;9.30;7.30;;;;;;;;;;4973607;28;20350;-73
2022/02/11 08:00:52;;;;;;;10.33;8.07;;;;;;;;;;4974948;28;20300;-74
2022/02/11 08:03:18;;;;;;;11.57;8.63;;;;;;;;;;4973157;28;20273;-74
2022/02/11 08:05:45;;;;;;;9.70;8.17;;;;;;;;;;4967535;28;20237;-74
2022/02/11 08:08:11;;;;;;;14.77;12.63;;;;;;;;;;4966564;28;20229;-73
2022/02/11 08:10:36;;;;;;;14.37;11.83;;;;;;;;;;4974470;28;20277;-74
2022/02/11 08:13:02;;;;;;;12.47;9.77;;;;;;;;;;4973540;28;20620;-74
2022/02/11 08:15:27;;;;;;;10.33;9.23;;;;;;;;;;4970296;28;20713;-73
2022/02/11 08:17:55;;;;;;;11.03;9.33;;;;;;;;;;4938163;28;20219;-73
2022/02/11 08:20:25;;;;;;;14.43;10.57;;;;;;;;;;4984706;28;20230;-74
2022/02/11 08:22:51;;;;;;;12.30;10.27;;;;;;;;;;4957479;28;20222;-73
2022/02/11 08:25:19;;;;;;;15.07;11.43;;;;;;;;;;4974440;28;20269;-73
2022/02/11 08:27:50;;;;;;;12.50;11.20;;;;;;;;;;4972942;28;20226;-73
2022/02/11 08:30:16;;;;;;;12.87;7.93;;;;;;;;;;4972021;28;20246;-75
2022/02/11 08:32:47;;;;;;;0.17;0.17;;;;;;;;;;4967849;28;20214;-74
2022/02/11 08:35:15;;;;;;;0.17;0.17;;;;;;;;;;4967851;28;20215;-74
2022/02/11 08:37:41;;;;;;;0.10;0.10;;;;;;;;;;4967821;28;20272;-75
2022/02/11 08:40:07;;;;;;;0.10;0.10;;;;;;;;;;4970616;28;20313;-74
2022/02/11 08:42:32;;;;;;;0.10;0.10;;;;;;;;;;4987212;28;20713;-74
2022/02/11 08:45:01;;;;;;;0.20;0.20;;;;;;;;;;4971775;28;20230;-75
2022/02/11 08:47:32;;;;;;;0.10;0.10;;;;;;;;;;4982261;28;20292;-74
2022/02/11 08:49:59;;;;;;;0.13;0.13;;;;;;;;;;4973008;28;20731;-74
2022/02/11 08:52:31;;;;;;;0.10;0.10;;;;;;;;;;4972551;28;20305;-76
2022/02/11 08:54:57;;;;;;;0.13;0.13;;;;;;;;;;4963710;28;20253;-74
2022/02/11 08:57:22;;;;;;;0.27;0.27;;;;;;;;;;4972644;28;20215;-73
2022/02/11 08:59:48;;;;;;;0.10;0.10;;;;;;;;;;4973511;28;20320;-74
2022/02/11 09:02:17;;;;;;;0.10;0.10;;;;;;;;;;4956399;28;20230;-74
2022/02/11 09:04:44;;;;;;;0.37;0.37;;;;;;;;;;4957553;28;20218;-73
2022/02/11 09:07:10;;;;;;;0.30;0.30;;;;;;;;;;4980388;28;20238;-73
2022/02/11 09:09:35;;;;;;;2.43;0.97;;;;;;;;;;4972744;28;20369;-73
2022/02/11 09:12:01;;;;;;;0.37;0.37;;;;;;;;;;4972280;28;20624;-73
2022/02/11 09:14:26;;;;;;;0.30;0.30;;;;;;;;;;4955081;28;20229;-72
2022/02/11 09:16:54;;;;;;;1.03;0.50;;;;;;;;;;4978028;28;20230;-72
2022/02/11 09:19:22;;;;;;;0.10;0.10;;;;;;;;;;4955982;28;20226;-73
2022/02/11 09:21:48;;;;;;;0.10;0.10;;;;;;;;;;4936784;28;20229;-73
2022/02/11 09:24:15;;;;;;;0.40;0.40;;;;;;;;;;4955009;28;20222;-74
2022/02/11 09:26:41;;;;;;;0.40;0.40;;;;;;;;;;4938694;28;20224;-74
2022/02/11 09:29:06;;;;;;;0.10;0.10;;;;;;;;;;4963646;28;20226;-73
2022/02/11 09:31:34;;;;;;;0.30;0.30;;;;;;;;;;4973718;28;20230;-73
2022/02/11 09:34:04;;;;;;;0.57;0.57;;;;;;;;;;4972616;28;20230;-75
2022/02/11 09:36:35;;;;;;;0.30;0.30;;;;;;;;;;4952550;28;20231;-74
2022/02/11 09:39:05;;;;;;;0.10;0.10;;;;;;;;;;4949682;28;20242;-74
2022/02/11 09:41:31;;;;;;;0.93;0.93;;;;;;;;;;4965366;28;20226;-73
2022/02/11 09:44:04;;;;;;;0.10;0.10;;;;;;;;;;4971770;28;20222;-73
2022/02/11 09:46:34;;;;;;;0.10;0.10;;;;;;;;;;4972537;28;20345;-73
2022/02/11 09:49:00;;;;;;;0.20;0.20;;;;;;;;;;4957002;28;20226;-73
2022/02/11 09:51:28;;;;;;;0.10;0.10;;;;;;;;;;4964748;28;20222;-74
2022/02/11 09:53:53;;;;;;;0.00;0.00;;;;;;;;;;4952865;28;20242;-72
2022/02/11 09:56:21;;;;;;;0.10;0.10;;;;;;;;;;4962069;28;20222;-73
2022/02/11 09:58:50;;;;;;;0.10;0.10;;;;;;;;;;4972419;28;20218;-73
2022/02/11 10:01:19;;;;;;;0.10;0.10;;;;;;;;;;4971788;28;20225;-73
2022/02/11 10:03:48;;;;;;;0.20;0.20;;;;;;;;;;4972607;28;20658;-73
2022/02/11 10:06:13;;;;;;;0.10;0.10;;;;;;;;;;4969232;28;20234;-74
2022/02/11 10:08:40;;;;;;;0.10;0.10;;;;;;;;;;4942502;28;20227;-73
2022/02/11 10:11:08;;;;;;;0.10;0.10;;;;;;;;;;4942622;28;20217;-73
2022/02/11 10:13:38;;;;;;;0.27;0.27;;;;;;;;;;4972362;28;20628;-74
2022/02/11 10:16:08;;;;;;;0.10;0.10;;;;;;;;;;4972637;28;20222;-73
2022/02/11 10:18:37;;;;;;;0.40;0.40;;;;;;;;;;4957228;28;20268;-74
2022/02/11 10:21:04;;;;;;;0.40;0.40;;;;;;;;;;4990055;28;20273;-74
2022/02/11 10:23:40;;;;;;;0.93;0.93;;;;;;;;;;4971627;28;20600;-75
2022/02/11 10:26:16;;;;;;;0.63;0.63;;;;;;;;;;4971842;28;20281;-73
2022/02/11 10:28:47;;;;;;;0.30;0.30;;;;;;;;;;4972268;28;20229;-73
2022/02/11 10:31:20;;;;;;;0.10;0.10;;;;;;;;;;4972083;28;20226;-74
2022/02/11 10:34:02;;;;;;;1.80;0.50;;;;;;;;;;4986662;28;20238;-74
2022/02/11 10:36:41;;;;;;;1.17;1.13;;;;;;;;;;4950968;28;20222;-73
2022/02/11 10:39:26;;;;;;;0.40;0.40;;;;;;;;;;4955163;28;20230;-73
2022/02/11 10:41:54;;;;;;;0.10;0.10;;;;;;;;;;4960345;28;20222;-73
2022/02/11 10:44:26;;;;;;;0.10;0.10;;;;;;;;;;4972249;28;20308;-73
2022/02/11 10:47:04;;;;;;;0.87;0.87;;;;;;;;;;4948033;28;20640;-73
2022/02/11 10:49:40;;;;;;;0.50;0.50;;;;;;;;;;4940348;28;20336;-75
2022/02/11 10:52:16;;;;;;;0.20;0.20;;;;;;;;;;4971621;28;20229;-73
2022/02/11 10:54:42;;;;;;;0.40;0.40;;;;;;;;;;4955961;28;20283;-73
2022/02/11 10:57:13;;;;;;;0.20;0.20;;;;;;;;;;4955336;28;20222;-74
2022/02/11 10:59:43;;;;;;;0.13;0.13;;;;;;;;;;4955378;28;20222;-73
2022/02/11 11:02:10;;;;;;;0.30;0.30;;;;;;;;;;4967362;28;20222;-72
2022/02/11 11:04:38;;;;;;;0.10;0.10;;;;;;;;;;4939489;28;20230;-74
2022/02/11 11:07:06;;;;;;;0.40;0.40;;;;;;;;;;4969285;28;20218;-74
2022/02/11 11:09:36;;;;;;;0.50;0.50;;;;;;;;;;4971214;28;20234;-72
2022/02/11 11:12:05;;;;;;;0.10;0.10;;;;;;;;;;4971645;28;20222;-72
2022/02/11 11:14:30;;;;;;;0.37;0.37;;;;;;;;;;4955865;28;20234;-73
2022/02/11 11:17:00;;;;;;;0.10;0.10;;;;;;;;;;4955824;28;20221;-73
2022/02/11 11:19:26;;;;;;;0.00;0.00;;;;;;;;;;4955807;28;20234;-74
2022/02/11 11:22:11;;;;;;;0.33;0.33;;;;;;;;;;4971238;28;20252;-72
2022/02/11 11:24:39;;;;;;;0.30;0.30;;;;;;;;;;4972025;28;20229;-72
2022/02/11 11:27:04;;;;;;;0.00;0.00;;;;;;;;;;4968494;28;20589;-73
2022/02/11 11:29:30;;;;;;;0.20;0.20;;;;;;;;;;4971363;28;20238;-73
2022/02/11 11:31:57;;;;;;;0.10;0.10;;;;;;;;;;4971108;28;20317;-73
2022/02/11 11:34:28;;;;;;;0.10;0.10;;;;;;;;;;4955544;28;20656;-74
2022/02/11 11:36:57;;;;;;;0.27;0.27;;;;;;;;;;4952279;28;20253;-74
2022/02/11 11:39:28;;;;;;;0.10;0.10;;;;;;;;;;4942859;28;20609;-72
2022/02/11 11:42:09;;;;;;;0.50;0.50;;;;;;;;;;4973877;28;20743;-73
2022/02/11 11:44:45;;;;;;;0.00;0.00;;;;;;;;;;4974458;28;20229;-73
2022/02/11 11:47:13;;;;;;;1.83;0.67;;;;;;;;;;4955625;28;20233;-74
2022/02/11 11:49:40;;;;;;;0.10;0.10;;;;;;;;;;4939786;28;20310;-74
2022/02/11 11:52:13;;;;;;;0.10;0.10;;;;;;;;;;4957826;28;20226;-75
2022/02/11 11:54:39;;;;;;;0.10;0.10;;;;;;;;;;4971280;28;20225;-73
2022/02/11 11:57:17;;;;;;;0.13;0.13;;;;;;;;;;4964529;28;20265;-73
2022/02/11 11:59:45;;;;;;;0.10;0.10;;;;;;;;;;4965008;28;20266;-73
2022/02/11 12:02:16;;;;;;;0.20;0.20;;;;;;;;;;4952569;28;20230;-74
2022/02/11 12:04:41;;;;;;;0.20;0.20;;;;;;;;;;4976286;28;20222;-74
2022/02/11 12:07:25;;;;;;;0.20;0.20;;;;;;;;;;4966748;28;20672;-71
2022/02/11 12:09:55;;;;;;;0.53;0.30;;;;;;;;;;4959766;28;20234;-72
2022/02/11 12:12:24;;;;;;;0.10;0.10;;;;;;;;;;4971923;28;20632;-72
2022/02/11 12:14:54;;;;;;;0.20;0.20;;;;;;;;;;4972294;28;20222;-72
2022/02/11 12:17:21;;;;;;;0.10;0.10;;;;;;;;;;4934061;28;20700;-72
2022/02/11 12:19:49;;;;;;;0.10;0.10;;;;;;;;;;4969647;28;20316;-75
2022/02/11 12:22:16;;;;;;;0.10;0.10;;;;;;;;;;4971702;28;20218;-74
2022/02/11 12:27:35;;;;;;;0.13;0.13;;;;;;;;;;4974457;28;20356;-72
2022/02/11 12:30:17;;;;;;;0.10;0.10;;;;;;;;;;4987043;28;20237;-75
2022/02/11 12:32:53;;;;;;;0.30;0.30;;;;;;;;;;4992536;28;20229;-73
2022/02/11 12:35:26;;;;;;;0.10;0.10;;;;;;;;;;4969773;28;20226;-74
2022/02/11 12:37:52;;;;;;;0.20;0.20;;;;;;;;;;4962148;28;20235;-73
2022/02/11 12:40:27;;;;;;;0.10;0.10;;;;;;;;;;4972205;28;20222;-74
2022/02/11 12:42:55;;;;;;;0.13;0.13;;;;;;;;;;4967035;28;20223;-75
2022/02/11 12:45:21;;;;;;;0.10;0.10;;;;;;;;;;4966553;28;20305;-73
2022/02/11 12:47:50;;;;;;;0.10;0.10;;;;;;;;;;4975774;28;20230;-73
2022/02/11 12:50:16;;;;;;;0.13;0.13;;;;;;;;;;4970726;28;20230;-73
2022/02/11 12:52:42;;;;;;;0.60;0.60;;;;;;;;;;4951724;28;20233;-74
2022/02/11 12:55:16;;;;;;;0.20;0.20;;;;;;;;;;4956782;28;20225;-74
2022/02/11 12:57:43;;;;;;;0.00;0.00;;;;;;;;;;4982734;28;20229;-73
2022/02/11 13:00:14;;;;;;;0.53;0.50;;;;;;;;;;4975030;28;20226;-74
2022/02/11 13:02:42;;;;;;;0.00;0.00;;;;;;;;;;4990168;28;20238;-73
2022/02/11 13:05:07;;;;;;;0.23;0.23;;;;;;;;;;4954046;28;20234;-74
2022/02/11 13:07:37;;;;;;;0.10;0.10;;;;;;;;;;4972283;28;20229;-72
2022/02/11 13:10:05;;;;;;;0.10;0.10;;;;;;;;;;4940107;28;20755;-72
2022/02/11 13:12:39;;;;;;;0.10;0.10;;;;;;;;;;4940892;28;20304;-75
2022/02/11 13:15:08;;;;;;;0.10;0.10;;;;;;;;;;4951322;28;20709;-74
2022/02/11 13:17:36;;;;;;;0.30;0.27;;;;;;;;;;4932720;28;20617;-72
2022/02/11 13:20:13;;;;;;;0.10;0.10;;;;;;;;;;4971062;28;20233;-72
2022/02/11 13:22:40;;;;;;;0.00;0.00;;;;;;;;;;4972339;28;20240;-72
2022/02/11 13:25:08;;;;;;;0.00;0.00;;;;;;;;;;4934880;28;20313;-75
2022/02/11 13:27:51;;;;;;;0.20;0.20;;;;;;;;;;4954264;28;20608;-73
2022/02/11 13:30:24;;;;;;;0.10;0.10;;;;;;;;;;4955293;28;20241;-75
2022/02/11 13:32:52;;;;;;;0.50;0.50;;;;;;;;;;4971877;28;20218;-73
2022/02/11 13:35:18;;;;;;;0.10;0.10;;;;;;;;;;4956913;28;20272;-73
2022/02/11 13:37:50;;;;;;;0.73;0.70;;;;;;;;;;4936762;28;20568;-73
2022/02/11 13:40:23;;;;;;;1.60;0.53;;;;;;;;;;4952466;28;20218;-74
2022/02/11 13:42:53;;;;;;;0.60;0.60;;;;;;;;;;4977555;28;20313;-74
2022/02/11 13:45:21;;;;;;;0.27;0.27;;;;;;;;;;4960447;28;20309;-74
2022/02/11 13:48:07;;;;;;;0.10;0.10;;;;;;;;;;4970494;28;20276;-74
2022/02/11 13:50:57;;;;;;;0.10;0.10;;;;;;;;;;4972471;28;20253;-74
2022/02/11 13:53:52;;;;;;;0.40;0.40;;;;;;;;;;4969057;28;20230;-74
2022/02/11 13:56:33;;;;;;;0.03;0.03;;;;;;;;;;4955269;28;20254;-76
2022/02/11 13:59:13;;;;;;;0.10;0.10;;;;;;;;;;4973171;28;20217;-74
2022/02/11 14:01:43;;;;;;;0.00;0.00;;;;;;;;;;4935288;29;20779;-74
2022/02/11 14:04:19;;;;;;;0.67;0.67;;;;;;;;;;4936659;28;20321;-73
2022/02/11 14:06:55;;;;;;;0.10;0.10;;;;;;;;;;4945910;28;20234;-75
2022/02/11 14:09:39;;;;;;;4.90;1.90;;;;;;;;;;4988080;28;20246;-74
2022/02/11 14:12:13;;;;;;;8.70;4.50;;;;;;;;;;4971543;28;20711;-74
2022/02/11 14:15:07;;;;;;;8.03;4.30;;;;;;;;;;4971446;28;20230;-73
2022/02/11 14:17:35;;;;;;;8.23;5.00;;;;;;;;;;4970723;28;20258;-74
2022/02/11 14:20:06;;;;;;;8.50;2.57;;;;;;;;;;4971482;28;20734;-75
2022/02/11 14:22:34;;;;;;;5.17;2.30;;;;;;;;;;4955072;28;20226;-74
2022/02/11 14:25:00;;;;;;;8.37;4.43;;;;;;;;;;4972110;28;20376;-74
2022/02/11 14:27:29;;;;;;;18.47;9.00;;;;;;;;;;4972732;28;20588;-74
2022/02/11 14:29:54;;;;;;;8.33;4.40;;;;;;;;;;4955880;28;20245;-74
2022/02/11 14:32:20;;;;;;;14.60;8.73;;;;;;;;;;4954203;28;20242;-73
2022/02/11 14:34:50;;;;;;;9.63;5.07;;;;;;;;;;4952698;28;20223;-74
2022/02/11 14:37:17;;;;;;;15.43;8.30;;;;;;;;;;4979151;28;20359;-74
2022/02/11 14:39:43;;;;;;;10.03;4.90;;;;;;;;;;4973075;28;20233;-73
2022/02/11 14:42:08;;;;;;;7.63;4.33;;;;;;;;;;4970150;28;20230;-75
2022/02/11 14:44:39;;;;;;;4.17;2.33;;;;;;;;;;4958614;28;20318;-76
2022/02/11 14:47:07;;;;;;;6.70;2.37;;;;;;;;;;4969845;28;20285;-73
2022/02/11 14:49:32;;;;;;;4.80;2.07;;;;;;;;;;4938526;28;20649;-74
2022/02/11 14:52:02;;;;;;;7.73;2.70;;;;;;;;;;4951052;28;20253;-75
2022/02/11 14:54:31;;;;;;;7.00;2.10;;;;;;;;;;4966760;28;20654;-74
2022/02/11 14:56:58;;;;;;;3.57;1.50;;;;;;;;;;4939556;28;20222;-73
2022/02/11 14:59:26;;;;;;;4.27;2.00;;;;;;;;;;4938156;28;20703;-74
2022/02/11 15:01:57;;;;;;;5.13;2.13;;;;;;;;;;4936023;29;20226;-77
2022/02/11 15:04:25;;;;;;;3.93;1.80;;;;;;;;;;4936959;28;20269;-73
2022/02/11 15:06:53;;;;;;;5.83;1.60;;;;;;;;;;4969183;28;20226;-72
2022/02/11 15:09:21;;;;;;;4.40;1.80;;;;;;;;;;4967964;28;20238;-74
2022/02/11 15:11:46;;;;;;;3.83;1.80;;;;;;;;;;4954392;28;20237;-74
2022/02/11 15:14:14;;;;;;;4.33;1.30;;;;;;;;;;4941623;28;20273;-74
2022/02/11 15:16:40;;;;;;;6.10;1.60;;;;;;;;;;4940547;29;20735;-73
2022/02/11 15:19:08;;;;;;;6.00;1.73;;;;;;;;;;4955953;28;20215;-73
2022/02/11 15:21:36;;;;;;;4.93;1.50;;;;;;;;;;4964183;28;20226;-74
2022/02/11 15:24:04;;;;;;;7.73;1.90;;;;;;;;;;4975943;28;20236;-73
2022/02/11 15:26:30;;;;;;;7.53;1.57;;;;;;;;;;4975187;28;20325;-73
2022/02/11 15:28:58;;;;;;;3.83;1.20;;;;;;;;;;4975323;28;20234;-73
2022/02/11 15:31:26;;;;;;;6.07;1.97;;;;;;;;;;4958152;28;20282;-75
2022/02/11 15:33:52;;;;;;;5.87;1.50;;;;;;;;;;4974390;28;20313;-74
2022/02/11 15:36:20;;;;;;;6.37;1.93;;;;;;;;;;4969660;28;20309;-74
2022/02/11 15:38:46;;;;;;;5.13;1.90;;;;;;;;;;4959955;28;20256;-74
2022/02/11 15:41:12;;;;;;;5.80;1.50;;;;;;;;;;4942230;28;20249;-74
2022/02/11 15:43:37;;;;;;;5.40;1.60;;;;;;;;;;4990726;28;20230;-74
2022/02/11 15:46:04;;;;;;;4.33;1.30;;;;;;;;;;4938632;28;20238;-74
2022/02/11 15:48:30;;;;;;;7.23;1.47;;;;;;;;;;4972301;28;20218;-75
2022/02/11 15:51:01;;;;;;;7.53;1.83;;;;;;;;;;4957125;28;20218;-74
2022/02/11 15:53:30;;;;;;;5.53;2.10;;;;;;;;;;4941324;28;20275;-73
2022/02/11 15:55:57;;;;;;;8.33;1.90;;;;;;;;;;4957571;28;20249;-74
2022/02/11 15:58:23;;;;;;;6.77;1.50;;;;;;;;;;4939556;28;20225;-73
2022/02/11 16:00:50;;;;;;;6.53;1.57;;;;;;;;;;4957913;28;20245;-74
2022/02/11 16:03:19;;;;;;;5.60;1.80;;;;;;;;;;4971727;28;20238;-75
2022/02/11 16:05:46;;;;;;;9.63;1.97;;;;;;;;;;4974192;28;20723;-75
2022/02/11 16:08:14;;;;;;;5.50;1.67;;;;;;;;;;4957910;28;20732;-75
2022/02/11 16:10:40;;;;;;;4.57;1.47;;;;;;;;;;4974334;28;20230;-74
2022/02/11 16:13:07;;;;;;;7.77;1.60;;;;;;;;;;4957281;28;20237;-72
2022/02/11 16:15:35;;;;;;;5.13;1.50;;;;;;;;;;4939237;29;20237;-73
2022/02/11 16:18:03;;;;;;;4.60;1.30;;;;;;;;;;4967868;28;20320;-74
2022/02/11 16:20:29;;;;;;;4.70;1.43;;;;;;;;;;4990353;28;20699;-74
2022/02/11 16:22:55;;;;;;;7.37;1.97;;;;;;;;;;4970163;28;20222;-74
2022/02/11 16:25:24;;;;;;;6.37;1.50;;;;;;;;;;4948733;28;20222;-74
2022/02/11 16:27:53;;;;;;;6.07;1.67;;;;;;;;;;4953404;28;20226;-73
2022/02/11 16:30:19;;;;;;;8.33;1.83;;;;;;;;;;4933285;28;20252;-73
2022/02/11 16:32:47;;;;;;;6.93;2.10;;;;;;;;;;4957211;28;20234;-73
2022/02/11 16:35:18;;;;;;;7.73;2.50;;;;;;;;;;4955207;28;20221;-74
2022/02/11 16:37:49;;;;;;;8.10;2.50;;;;;;;;;;4971874;28;20222;-75
2022/02/11 16:40:18;;;;;;;4.97;1.70;;;;;;;;;;4949595;28;20222;-73
2022/02/11 16:42:44;;;;;;;8.80;4.57;;;;;;;;;;4972919;28;20237;-73
2022/02/11 16:45:10;;;;;;;7.87;2.97;;;;;;;;;;4973050;28;20222;-74
2022/02/11 16:47:40;;;;;;;10.37;3.97;;;;;;;;;;4972611;28;20719;-73
2022/02/11 16:50:07;;;;;;;6.23;2.30;;;;;;;;;;4957511;28;20238;-74
2022/02/11 16:52:38;;;;;;;6.80;2.90;;;;;;;;;;4974800;28;20225;-74
2022/02/11 16:55:05;;;;;;;8.23;2.63;;;;;;;;;;4941720;28;20260;-75
2022/02/11 16:57:31;;;;;;;7.50;2.30;;;;;;;;;;4936985;28;20218;-74
2022/02/11 17:00:01;;;;;;;7.00;2.37;;;;;;;;;;4953179;28;20608;-75
2022/02/11 17:02:30;;;;;;;7.63;2.43;;;;;;;;;;4964728;28;20727;-74
2022/02/11 17:04:55;;;;;;;6.37;2.70;;;;;;;;;;4967735;28;20222;-74
2022/02/11 17:07:21;;;;;;;6.97;2.50;;;;;;;;;;4977601;28;20325;-75
2022/02/11 17:09:49;;;;;;;10.50;3.30;;;;;;;;;;4972930;28;20242;-75
2022/02/11 17:12:14;;;;;;;10.23;4.50;;;;;;;;;;4970712;28;20294;-75
2022/02/11 17:14:45;;;;;;;7.57;3.20;;;;;;;;;;4972723;28;20238;-76
2022/02/11 17:17:11;;;;;;;7.53;3.37;;;;;;;;;;4972856;28;20226;-76
2022/02/11 17:19:39;;;;;;;8.63;3.47;;;;;;;;;;4974119;28;20293;-76
2022/02/11 17:22:07;;;;;;;8.93;3.83;;;;;;;;;;4971371;28;20843;-78
2022/02/11 17:24:34;;;;;;;9.67;4.30;;;;;;;;;;4973719;28;20230;-75
2022/02/11 17:26:59;;;;;;;8.40;3.70;;;;;;;;;;4972557;28;20356;-75
2022/02/11 17:29:25;;;;;;;9.90;4.90;;;;;;;;;;4972930;28;20261;-75
2022/02/11 17:31:53;;;;;;;9.27;5.43;;;;;;;;;;4972208;28;20601;-76
2022/02/11 17:34:20;;;;;;;11.03;5.13;;;;;;;;;;4973609;28;20669;-77
2022/02/11 17:36:46;;;;;;;8.27;4.50;;;;;;;;;;4966551;28;20231;-74
2022/02/11 17:39:12;;;;;;;11.77;4.83;;;;;;;;;;4953989;28;20300;-75
2022/02/11 17:41:37;;;;;;;8.27;3.97;;;;;;;;;;4967273;28;20310;-74
2022/02/11 17:44:06;;;;;;;10.43;3.90;;;;;;;;;;4968581;28;20281;-74
2022/02/11 17:46:34;;;;;;;9.77;4.00;;;;;;;;;;4970612;28;20288;-74
2022/02/11 17:49:01;;;;;;;7.57;3.07;;;;;;;;;;4974268;28;20230;-74
2022/02/11 17:51:31;;;;;;;10.53;3.33;;;;;;;;;;4940207;28;20222;-75
2022/02/11 17:53:57;;;;;;;8.10;3.13;;;;;;;;;;4972983;28;20230;-74
2022/02/11 17:56:25;;;;;;;8.57;2.73;;;;;;;;;;4970937;28;20301;-74
2022/02/11 17:58:53;;;;;;;8.27;2.97;;;;;;;;;;4955799;28;20226;-74
2022/02/11 18:01:22;;;;;;;13.30;3.60;;;;;;;;;;4972144;28;20309;-73
2022/02/11 18:03:48;;;;;;;10.07;2.80;;;;;;;;;;4971239;28;20230;-74
2022/02/11 18:06:13;;;;;;;5.53;2.57;;;;;;;;;;4968668;28;20228;-75
2022/02/11 18:08:39;;;;;;;12.13;3.20;;;;;;;;;;4966881;28;20245;-74
2022/02/11 18:11:07;;;;;;;8.43;2.90;;;;;;;;;;4939443;28;20218;-74
2022/02/11 18:13:32;;;;;;;6.20;2.73;;;;;;;;;;4955195;28;20292;-74
2022/02/11 18:15:59;;;;;;;8.27;2.63;;;;;;;;;;4970673;28;20226;-75
2022/02/11 18:18:27;;;;;;;9.13;2.63;;;;;;;;;;4970448;28;20688;-73
2022/02/11 18:20:55;;;;;;;7.13;2.60;;;;;;;;;;4951596;28;20229;-73
2022/02/11 18:23:25;;;;;;;7.37;3.10;;;;;;;;;;4951368;28;20322;-73
2022/02/11 18:25:51;;;;;;;9.07;3.20;;;;;;;;;;4972172;28;20640;-72
2022/02/11 18:28:19;;;;;;;8.10;2.97;;;;;;;;;;4970963;28;20301;-73
2022/02/11 18:30:44;;;;;;;10.43;3.90;;;;;;;;;;4972130;28;20229;-75
2022/02/11 18:33:10;;;;;;;8.20;3.47;;;;;;;;;;4951910;28;20766;-73